Data for 08/20/2008

Time Sea-Level Adjusted Pressure Absolute Pressure Temperature Relative Humidity Dew Point   
(mb) (inHg) (mb) (inHg) (C) (F) (%) (C) (F)
00:05 1013 29.91 842 24.86 18.1 64.7 50 7.6 45.7
00:10 1013 29.91 842 24.86 18.4 65.2 48 7.4 45.3
00:15 1013 29.91 842 24.86 18.5 65.3 47 7.2 44.9
00:20 1013 29.91 842 24.86 18.5 65.3 48 7.3 45.2
00:25 1013 29.91 842 24.86 18.2 64.8 49 7.3 45.2
00:30 1013 29.91 842 24.86 18.1 64.5 50 7.5 45.5
00:35 1013 29.91 842 24.86 17.9 64.2 49 7.2 45
00:40 1013 29.91 842 24.86 17.8 64 50 7.4 45.4
00:45 1013 29.91 842 24.86 18 64.3 48 6.9 44.4
00:50 1013 29.91 843 24.89 18.2 64.8 46 6.5 43.7
00:55 1014 29.94 843 24.89 18.7 65.6 46 7 44.7
01:00 1014 29.94 843 24.89 18.4 65.1 45 6.5 43.8
01:05 1014 29.94 843 24.89 18.7 65.7 46 6.9 44.4
01:10 1014 29.94 843 24.89 18.6 65.6 47 7.4 45.3
01:15 1014 29.94 843 24.89 18.4 65 50 7.8 46
01:20 1014 29.94 843 24.89 17.9 64.2 52 7.9 46.2
01:25 1014 29.94 843 24.89 17.6 63.7 53 8 46.4
01:30 1014 29.94 843 24.89 17.3 63.2 54 8 46.4
01:35 1014 29.94 844 24.92 17.3 63.1 54 7.9 46.2
01:40 1014 29.94 844 24.92 17.4 63.3 53 7.9 46.3
01:45 1014 29.94 844 24.92 17.4 63.4 54 8.2 46.8
01:50 1015 29.97 844 24.92 17.1 62.8 55 8.1 46.5
01:55 1015 29.97 844 24.92 17.3 63.1 53 7.8 46.1
02:00 1015 29.97 844 24.92 17.4 63.3 54 8 46.5
02:05 1015 29.97 844 24.92 17.2 63 56 8.4 47.1
02:10 1015 29.97 844 24.92 17.1 62.8 54 7.9 46.2
02:15 1014 29.94 844 24.92 17.3 63.2 55 8.2 46.8
02:20 1014 29.94 843 24.89 17.5 63.4 54 8.2 46.7
02:25 1014 29.94 843 24.89 17.1 62.8 56 8.3 47
02:30 1014 29.94 843 24.89 17.1 62.9 55 8 46.5
02:35 1014 29.94 843 24.89 17.1 62.7 56 8.3 47
02:40 1014 29.94 843 24.89 16.6 61.9 59 8.6 47.5
02:45 1014 29.94 843 24.89 15.9 60.7 62 8.7 47.6
02:50 1014 29.94 843 24.89 15.8 60.5 61 8.5 47.2
02:55 1014 29.94 843 24.89 15.6 60 61 8.2 46.8
03:00 1014 29.94 843 24.89 15.5 59.8 64 8.7 47.6
03:05 1014 29.94 843 24.89 15.4 59.7 64 8.8 47.8
03:10 1014 29.94 843 24.89 15.4 59.7 63 8.6 47.4
03:15 1014 29.94 843 24.89 15.4 59.7 61 8 46.3
03:20 1014 29.94 843 24.89 15.2 59.3 64 8.5 47.3
03:25 1014 29.94 843 24.89 14.6 58.2 67 8.6 47.5
03:30 1014 29.94 843 24.89 14.3 57.8 68 8.5 47.4
03:35 1014 29.94 843 24.89 14.2 57.6 68 8.6 47.4
03:40 1014 29.94 843 24.89 14.2 57.5 69 8.6 47.6
03:45 1014 29.94 843 24.89 14.1 57.5 69 8.6 47.4
03:50 1014 29.94 843 24.89 14.2 57.5 69 8.7 47.7
03:55 1014 29.94 843 24.89 14.1 57.3 70 8.8 47.8
04:00 1014 29.94 843 24.89 14 57.2 71 8.9 48.1
04:05 1014 29.94 843 24.89 13.9 56.9 71 8.8 47.8
04:10 1014 29.94 844 24.92 13.9 56.9 71 8.7 47.7
04:15 1014 29.94 844 24.92 13.9 57 70 8.6 47.6
04:20 1015 29.97 844 24.92 14 57.1 70 8.6 47.4
04:25 1015 29.97 844 24.92 14.1 57.4 68 8.4 47.2
04:30 1015 29.97 844 24.92 14.4 57.8 68 8.5 47.4
04:35 1015 29.97 844 24.92 14.2 57.6 69 8.6 47.5
04:40 1015 29.97 844 24.92 14.1 57.3 69 8.4 47.1
04:45 1015 29.97 844 24.92 14.1 57.5 69 8.6 47.4
04:50 1015 29.97 844 24.92 14.1 57.3 68 8.4 47.1
04:55 1015 29.97 844 24.92 14 57.2 69 8.6 47.4
05:00 1015 29.97 844 24.92 14 57.3 67 8.1 46.6
05:05 1015 29.97 844 24.92 14.2 57.6 68 8.5 47.3
05:10 1015 29.97 844 24.92 13.7 56.6 70 8.3 47
05:15 1015 29.97 844 24.92 13.5 56.3 69 8 46.4
05:20 1015 29.97 844 24.92 13.8 56.9 65 7.5 45.4
05:25 1015 29.97 844 24.92 14.3 57.8 66 8.1 46.5
05:30 1015 29.97 844 24.92 14 57.2 68 8.2 46.8
05:35 1015 29.97 844 24.92 13.5 56.3 69 8 46.5
05:40 1015 29.97 844 24.92 13.5 56.2 68 7.8 46.1
05:45 1015 29.97 844 24.92 13.5 56.3 69 8 46.4
05:50 1015 29.97 844 24.92 13.4 56.2 70 8.1 46.5
05:55 1015 29.97 844 24.92 13.4 56.1 70 8.1 46.5
06:00 1015 29.97 844 24.92 13.2 55.8 70 7.9 46.3
06:05 1015 29.97 844 24.92 13 55.5 71 7.9 46.2
06:10 1015 29.97 844 24.92 13.1 55.6 70 7.9 46.1
06:15 1015 29.97 844 24.92 13.1 55.6 70 7.9 46.1
06:20 1015 29.97 844 24.92 13.2 55.8 70 7.9 46.3
06:25 1015 29.97 844 24.92 13.1 55.6 71 8 46.3
06:30 1015 29.97 844 24.92 12.9 55.2 71 7.8 46.1
06:35 1015 29.97 844 24.92 13 55.4 70 7.7 45.8
06:40 1015 29.97 844 24.92 13.1 55.5 69 7.6 45.7
06:45 1015 29.97 844 24.92 13.1 55.7 69 7.6 45.7
06:50 1015 29.97 844 24.92 13 55.4 70 7.6 45.8
06:55 1015 29.97 844 24.92 12.9 55.2 70 7.6 45.6
07:00 1015 29.97 844 24.92 12.7 54.8 71 7.6 45.6
07:05 1015 29.97 844 24.92 12.6 54.6 71 7.5 45.5
07:10 1015 29.97 844 24.92 12.8 55.1 68 7.2 45
07:15 1015 29.97 844 24.92 13.2 55.7 68 7.4 45.3
07:20 1015 29.97 844 24.92 13.3 55.9 67 7.3 45.1
07:25 1015 29.97 844 24.92 13.5 56.2 67 7.4 45.4
07:30 1015 29.97 844 24.92 13.6 56.6 66 7.4 45.3
07:35 1015 29.97 844 24.92 13.7 56.7 66 7.6 45.7
07:40 1015 29.97 844 24.92 13.9 57.1 65 7.5 45.5
07:45 1015 29.97 844 24.92 14.2 57.5 65 7.7 45.9
07:50 1015 29.97 844 24.92 14.4 58 64 7.9 46.2
07:55 1015 29.97 844 24.92 14.6 58.3 65 8.1 46.5
08:00 1015 29.97 844 24.92 14.9 58.9 62 7.7 45.9
08:05 1015 29.97 844 24.92 15.1 59.2 62 7.9 46.2
08:10 1015 29.97 844 24.92 15.7 60.2 60 8.1 46.5
08:15 1015 29.97 844 24.92 15.5 59.8 62 8.3 46.9
08:20 1015 29.97 844 24.92 15.5 60 61 8.2 46.8
08:25 1015 29.97 844 24.92 15.8 60.4 60 8 46.4
08:30 1015 29.97 844 24.92 16.2 61.2 59 8.4 47.1
08:35 1015 29.97 844 24.92 16.5 61.7 58 8.2 46.7
08:40 1015 29.97 844 24.92 16.9 62.3 55 7.8 46.1
08:45 1015 29.97 844 24.92 17.3 63.2 54 8.2 46.7
08:50 1015 29.97 844 24.92 17.6 63.6 55 8.5 47.3
08:55 1015 29.97 844 24.92 17.7 63.8 54 8.5 47.2
09:00 1015 29.97 844 24.92 18.2 64.8 53 8.6 47.4
09:05 1015 29.97 844 24.92 18.4 65.2 52 8.5 47.3
09:10 1015 29.97 844 24.92 18.5 65.3 52 8.4 47.2
09:15 1015 29.97 844 24.92 18.7 65.6 53 8.9 48.1
09:20 1015 29.97 844 24.92 19.5 67 50 8.8 47.9
09:25 1014 29.94 844 24.92 20.1 68.2 47 8.6 47.5
09:30 1014 29.94 844 24.92 21.1 69.9 44 8.6 47.5
09:35 1014 29.94 844 24.92 21.8 71.2 39 7.3 45.2
09:40 1014 29.94 844 24.92 22.4 72.2 37 7.2 44.9
09:45 1014 29.94 844 24.92 22.4 72.3 38 7.7 45.8
09:50 1014 29.94 844 24.92 22 71.6 38 7.1 44.8
09:55 1014 29.94 843 24.89 22.3 72.2 36 6.6 43.9
10:00 1014 29.94 843 24.89 22.7 72.8 35 6.6 43.9
10:05 1014 29.94 843 24.89 23.4 74.1 33 6.4 43.5
10:10 1014 29.94 843 24.89 24 75.1 33 6.7 44.1
10:15 1014 29.94 843 24.89 24 75.2 32 6.5 43.8
10:20 1014 29.94 843 24.89 24.5 76.2 30 5.9 42.7
10:25 1014 29.94 843 24.89 25.1 77.3 28 5.8 42.4
10:30 1014 29.94 843 24.89 25.5 77.8 28 6 42.8
10:35 1014 29.94 843 24.89 24.8 76.7 29 5.7 42.2
10:40 1014 29.94 843 24.89 24.4 75.9 28 4.8 40.7
10:45 1014 29.94 843 24.89 24.4 75.8 26 3.7 38.7
10:50 1014 29.94 843 24.89 24.7 76.4 24 3 37.4
10:55 1014 29.94 843 24.89 24.4 76 26 3.8 38.9
11:00 1014 29.94 843 24.89 24.9 76.8 23 2.3 36.2
11:05 1014 29.94 843 24.89 25.8 78.4 19 0.7 33.3
11:10 1014 29.94 843 24.89 25.8 78.4 18 -0.3 31.5
11:15 1014 29.94 843 24.89 26.4 79.5 17 0 32
11:20 1013 29.91 843 24.89 25.6 78.1 18 -0 31.9
11:25 1013 29.91 842 24.86 25.7 78.3 17 -0.9 30.5
11:30 1013 29.91 842 24.86 24.9 76.8 18 -0.7 30.8
11:35 1013 29.91 842 24.86 25.4 77.7 18 -0.3 31.4
11:40 1013 29.91 842 24.86 25.8 78.5 16 -1.4 29.4
11:45 1013 29.91 842 24.86 25.8 78.5 16 -2 28.4
11:50 1013 29.91 842 24.86 25.3 77.6 17 -1.2 29.8
11:55 1013 29.91 842 24.86 25 76.9 18 -1 30.2
12:00 1013 29.91 842 24.86 25.2 77.3 17 -1.3 29.7
12:05 1013 29.91 842 24.86 26.3 79.3 18 0.3 32.5
12:10 1013 29.91 842 24.86 26.1 78.9 18 -0.2 31.6
12:15 1013 29.91 842 24.86 25.9 78.7 17 -0.9 30.5
12:20 1012 29.88 842 24.86 25.9 78.6 18 -0.3 31.4
12:25 1012 29.88 842 24.86 25.3 77.5 19 0.2 32.4
12:30 1012 29.88 842 24.86 25.8 78.4 19 0.3 32.6
12:35 1012 29.88 841 24.83 25.8 78.5 17 -0.4 31.2
12:40 1012 29.88 841 24.83 26.1 78.9 18 0.2 32.4
12:45 1012 29.88 841 24.83 25.9 78.6 18 0.1 32.1
12:50 1012 29.88 841 24.83 26.6 79.8 16 -0.8 30.6
12:55 1012 29.88 841 24.83 26.9 80.4 15 -1.3 29.6
13:00 1012 29.88 841 24.83 27 80.6 17 -0 32
13:05 1012 29.88 841 24.83 27.2 81 15 -1.6 29.2
13:10 1012 29.88 841 24.83 26.6 79.9 17 0.2 32.4
13:15 1012 29.88 841 24.83 27.2 81 17 0.5 32.9
13:20 1012 29.88 841 24.83 27.5 81.6 18 1.4 34.4
13:25 1012 29.88 841 24.83 28.2 82.7 16 -0 32
13:30 1012 29.88 841 24.83 28 82.3 15 -1.1 30
13:35 1012 29.88 841 24.83 27.7 81.9 17 0.8 33.4
13:40 1012 29.88 841 24.83 27.7 81.9 17 1.1 34
13:45 1012 29.88 841 24.83 28.3 83 15 -0.1 31.8
13:50 1012 29.88 841 24.83 28.3 82.9 15 -0.4 31.3
13:55 1011 29.85 841 24.83 28 82.4 16 -0.2 31.6
14:00 1011 29.85 841 24.83 27.8 82 17 0.4 32.7
14:05 1011 29.85 841 24.83 28.1 82.5 17 1.2 34.2
14:10 1011 29.85 840 24.81 28.2 82.7 15 -0.6 31
14:15 1011 29.85 840 24.81 27.8 82 15 -1 30.1
14:20 1011 29.85 840 24.81 27.6 81.6 15 -0.8 30.6
14:25 1011 29.85 840 24.81 27.5 81.6 16 -0.6 30.8
14:30 1011 29.85 840 24.81 27.4 81.3 16 -0.4 31.3
14:35 1011 29.85 840 24.81 27.6 81.7 17 0.6 33.2
14:40 1011 29.85 840 24.81 26.9 80.5 17 0.3 32.6
14:45 1011 29.85 840 24.81 26.9 80.5 17 -0 31.9
14:50 1011 29.85 840 24.81 27.1 80.7 17 0.2 32.4
14:55 1011 29.85 840 24.81 27.3 81.2 17 0.8 33.4
15:00 1011 29.85 840 24.81 27.6 81.6 16 0.2 32.4
15:05 1011 29.85 840 24.81 27.2 81 17 0.7 33.2
15:10 1011 29.85 840 24.81 27.2 81 15 -1.6 29.1
15:15 1011 29.85 840 24.81 27.3 81.2 17 0.2 32.3
15:20 1011 29.85 840 24.81 27.6 81.7 15 -0.6 30.9
15:25 1011 29.85 840 24.81 27.7 81.8 15 -0.8 30.5
15:30 1011 29.85 840 24.81 27.5 81.5 16 -0.1 31.8
15:35 1011 29.85 840 24.81 27.1 80.8 19 1.5 34.7
15:40 1011 29.85 840 24.81 27.1 80.7 19 1.9 35.4
15:45 1011 29.85 840 24.81 26.8 80.2 20 2.5 36.5
15:50 1011 29.85 840 24.81 26.4 79.5 20 2.3 36.1
15:55 1011 29.85 840 24.81 26.1 78.9 20 1.6 34.8
16:00 1011 29.85 840 24.81 25.8 78.5 21 2.3 36.1
16:05 1011 29.85 840 24.81 25.7 78.3 22 2.5 36.5
16:10 1011 29.85 840 24.81 26 78.9 21 2.6 36.6
16:15 1011 29.85 840 24.81 26.7 80.1 16 -0.5 31
16:20 1011 29.85 840 24.81 27.2 81 16 -0.7 30.8
16:25 1011 29.85 840 24.81 27 80.5 16 -0.3 31.4
16:30 1011 29.85 840 24.81 27 80.7 17 0.4 32.7
16:35 1011 29.85 840 24.81 26.9 80.5 15 -1.4 29.6
16:40 1011 29.85 840 24.81 27 80.5 15 -1.3 29.7
16:45 1010 29.83 840 24.81 27.2 81 16 -0.7 30.8
16:50 1010 29.83 840 24.81 26.9 80.5 16 -1.1 30
16:55 1010 29.83 840 24.81 26.8 80.2 17 0.1 32.1
17:00 1010 29.83 840 24.81 26.8 80.2 18 0.9 33.7
17:05 1010 29.83 840 24.81 26.9 80.4 16 -0.7 30.8
17:10 1010 29.83 840 24.81 26.9 80.4 17 0.3 32.6
17:15 1010 29.83 840 24.81 27.1 80.7 17 -0.2 31.7
17:20 1010 29.83 839 24.78 27.1 80.7 18 0.8 33.4
17:25 1010 29.83 839 24.78 27 80.6 19 1.5 34.7
17:30 1010 29.83 839 24.78 27.3 81.1 18 1 33.7
17:35 1010 29.83 839 24.78 27.2 81 19 1.6 34.8
17:40 1010 29.83 839 24.78 27.4 81.3 16 -0.2 31.7
17:45 1010 29.83 839 24.78 26.9 80.3 19 1.9 35.4
17:50 1010 29.83 839 24.78 26.4 79.6 21 2.5 36.5
17:55 1010 29.83 839 24.78 26.4 79.6 20 2.2 35.9
18:00 1010 29.83 839 24.78 26.7 80 22 3.8 38.8
18:05 1010 29.83 839 24.78 26.5 79.7 19 1.6 34.9
18:10 1010 29.83 839 24.78 26.5 79.7 19 1.3 34.4
18:15 1010 29.83 839 24.78 26.5 79.7 20 1.8 35.2
18:20 1010 29.83 839 24.78 26.3 79.4 21 2.3 36.1
18:25 1010 29.83 839 24.78 26.3 79.3 21 2.7 36.8
18:30 1010 29.83 839 24.78 26.1 78.9 22 2.7 36.9
18:35 1010 29.83 839 24.78 25.9 78.6 23 3.6 38.5
18:40 1010 29.83 839 24.78 25.5 78 21 2 35.6
18:45 1010 29.83 839 24.78 25.3 77.5 22 2.3 36.1
18:50 1010 29.83 839 24.78 25.3 77.5 22 2.3 36.2
18:55 1010 29.83 839 24.78 25.2 77.3 23 2.7 36.8
19:00 1010 29.83 839 24.78 25 77 23 2.6 36.7
19:05 1010 29.83 839 24.78 25.1 77.1 22 2.4 36.2
19:10 1010 29.83 839 24.78 25.1 77.2 23 2.9 37.2
19:15 1010 29.83 839 24.78 25.1 77.1 23 2.7 36.9
19:20 1010 29.83 839 24.78 25 76.9 25 4 39.3
19:25 1010 29.83 839 24.78 24.4 76 26 3.8 38.8
19:30 1010 29.83 839 24.78 24.3 75.8 25 3.4 38
19:35 1010 29.83 839 24.78 24.6 76.2 24 2.8 37
19:40 1009 29.8 839 24.78 24.6 76.3 25 3.7 38.7
19:45 1009 29.8 839 24.78 24.2 75.6 26 3.5 38.3
19:50 1009 29.8 839 24.78 24 75.3 24 2.6 36.7
19:55 1010 29.83 839 24.78 23.6 74.5 24 2.3 36.1
20:00 1010 29.83 839 24.78 23.5 74.3 24 1.7 35.1
20:05 1010 29.83 839 24.78 23.8 74.8 22 1.1 34
20:10 1010 29.83 839 24.78 24 75.2 22 1.1 34.1
20:15 1009 29.8 839 24.78 24 75.3 22 0.9 33.7
20:20 1010 29.83 839 24.78 23.5 74.3 24 2.2 36
20:25 1010 29.83 839 24.78 22.9 73.2 24 1.4 34.5
20:30 1010 29.83 839 24.78 23 73.3 24 1.5 34.7
20:35 1009 29.8 839 24.78 22.9 73.1 24 1.6 34.9
20:40 1009 29.8 839 24.78 22.7 72.9 25 1.6 34.9
20:45 1010 29.83 839 24.78 22.6 72.7 26 2.4 36.3
20:50 1009 29.8 839 24.78 22.7 72.8 24 1.3 34.3
20:55 1009 29.8 839 24.78 22.8 73 24 1.4 34.5
21:00 1010 29.83 839 24.78 22.7 72.8 23 1 33.7
21:05 1010 29.83 839 24.78 22.5 72.5 27 2.6 36.8
21:10 1010 29.83 839 24.78 21.9 71.4 29 3.2 37.7
21:15 1010 29.83 839 24.78 21.6 70.9 28 2.5 36.5
21:20 1010 29.83 839 24.78 21.7 71 26 1.4 34.5
21:25 1010 29.83 839 24.78 21.9 71.5 25 1.4 34.4
21:30 1010 29.83 839 24.78 22.1 71.8 25 1.2 34.1
21:35 1010 29.83 839 24.78 22.2 72 26 2.2 35.9
21:40 1011 29.85 840 24.81 21.5 70.7 36 5.8 42.5
21:45 1011 29.85 840 24.81 20.4 68.6 42 7 44.6
21:50 1011 29.85 840 24.81 20.1 68.3 43 7.2 45
21:55 1011 29.85 840 24.81 20 68 42 6.8 44.3
22:00 1011 29.85 840 24.81 19.9 67.7 42 6.7 44.1
22:05 1011 29.85 840 24.81 19.8 67.6 42 6.7 44.1
22:10 1011 29.85 840 24.81 19.7 67.4 42 6.7 44
22:15 1011 29.85 840 24.81 19.6 67.3 43 6.7 44
22:20 1011 29.85 840 24.81 19.5 67.2 44 6.9 44.5
22:25 1011 29.85 841 24.83 19.5 67 45 7.5 45.5
22:30 1011 29.85 841 24.83 19.1 66.3 45 7.1 44.7
22:35 1011 29.85 841 24.83 19 66.2 45 6.9 44.4
22:40 1011 29.85 840 24.81 19.1 66.5 45 7.1 44.7
22:45 1011 29.85 840 24.81 19.4 66.8 44 6.9 44.4
22:50 1011 29.85 840 24.81 19.3 66.7 45 7.2 44.9
22:55 1011 29.85 840 24.81 19.2 66.5 44 6.8 44.2
23:00 1011 29.85 840 24.81 19.1 66.4 44 6.6 43.9
23:05 1011 29.85 840 24.81 18.9 65.9 46 7.2 45
23:10 1011 29.85 840 24.81 18.5 65.3 47 7.2 45
23:15 1011 29.85 840 24.81 18.2 64.8 46 6.5 43.6
23:20 1011 29.85 840 24.81 18.6 65.5 46 7.1 44.7
23:25 1011 29.85 840 24.81 17.9 64.2 50 7.5 45.5
23:30 1011 29.85 840 24.81 17.4 63.4 51 7.3 45.2
23:35 1011 29.85 840 24.81 17.3 63.2 52 7.5 45.4
23:40 1011 29.85 840 24.81 17.2 62.9 51 7 44.6
23:45 1011 29.85 840 24.81 17.3 63.2 49 6.7 44
23:50 1011 29.85 840 24.81 17.5 63.5 50 7 44.7
23:55 1011 29.85 840 24.81 17.5 63.4 51 7.3 45.1
24:00 1011 29.85 840 24.81 17.5 63.4 50 7 44.6